createdAt,value
2018-01-07T00:02:21.533Z,51.37
2018-01-07T00:04:49.593Z,58.17
2018-01-07T00:07:21.661Z,59.65
2018-01-07T00:09:55.029Z,56.10
2018-01-07T00:12:28.049Z,54.75
2018-01-07T00:15:09.216Z,50.53
2018-01-07T00:17:41.395Z,52.60
2018-01-07T00:20:13.373Z,47.33
2018-01-07T00:22:41.468Z,49.10
2018-01-07T00:25:10.623Z,43.28
2018-01-07T00:27:38.729Z,48.30
2018-01-07T00:30:06.854Z,51.42
2018-01-07T00:32:34.937Z,46.70
2018-01-07T00:35:05.025Z,44.13
2018-01-07T00:37:34.377Z,47.53
2018-01-07T00:40:02.464Z,47.38
2018-01-07T00:42:31.701Z,55.75
2018-01-07T00:45:00.101Z,58.03
2018-01-07T00:47:29.169Z,51.63
2018-01-07T00:50:00.201Z,54.53
2018-01-07T00:52:29.041Z,48.53
2018-01-07T00:54:59.193Z,51.70
2018-01-07T00:57:28.629Z,48.83
2018-01-07T01:00:03.547Z,48.55
2018-01-07T01:02:32.598Z,48.30
2018-01-07T01:05:01.661Z,46.33
2018-01-07T01:07:29.777Z,45.75
2018-01-07T01:09:59.877Z,46.42
2018-01-07T01:12:39.069Z,45.00
2018-01-07T01:15:09.097Z,48.10
2018-01-07T01:17:37.128Z,48.70
2018-01-07T01:20:14.117Z,53.70
2018-01-07T01:22:44.156Z,52.15
2018-01-07T01:25:22.569Z,46.78
2018-01-07T01:27:56.329Z,46.13
2018-01-07T01:30:27.940Z,41.85
2018-01-07T01:32:56.049Z,48.80
2018-01-07T01:35:25.081Z,64.43
2018-01-07T01:37:55.005Z,59.55
2018-01-07T01:40:23.109Z,45.95
2018-01-07T01:42:51.525Z,50.65
2018-01-07T01:45:25.433Z,49.28
2018-01-07T01:48:00.773Z,39.45
2018-01-07T01:50:42.645Z,50.42
2018-01-07T01:53:11.681Z,46.42
2018-01-07T01:55:40.361Z,47.28
2018-01-07T01:58:13.228Z,41.53
2018-01-07T02:00:44.162Z,43.75
2018-01-07T02:03:13.160Z,65.35
2018-01-07T02:05:43.309Z,40.77
2018-01-07T02:08:15.920Z,52.88
2018-01-07T02:10:51.050Z,45.12
2018-01-07T02:13:21.396Z,45.60
2018-01-07T02:15:52.748Z,40.80
2018-01-07T02:18:20.873Z,49.67
2018-01-07T02:20:48.988Z,51.17
2018-01-07T02:23:17.113Z,56.25
2018-01-07T02:25:45.165Z,50.12
2018-01-07T02:28:13.276Z,53.35
2018-01-07T02:30:42.281Z,49.85
2018-01-07T02:33:11.584Z,45.33
2018-01-07T02:35:40.536Z,49.05
2018-01-07T02:38:09.777Z,42.53
2018-01-07T02:40:39.845Z,53.25
2018-01-07T02:43:07.940Z,40.45
2018-01-07T02:45:36.893Z,42.70
2018-01-07T02:48:04.929Z,50.78
2018-01-07T02:50:38.452Z,44.25
2018-01-07T02:53:08.392Z,47.35
2018-01-07T02:55:38.532Z,45.63
2018-01-07T02:58:13.824Z,49.72
2018-01-07T03:00:46.764Z,51.05
2018-01-07T03:03:19.228Z,45.97
2018-01-07T03:05:51.084Z,49.95
2018-01-07T03:08:27.586Z,57.10
2018-01-07T03:10:59.032Z,49.95
2018-01-07T03:13:30.316Z,47.85
2018-01-07T03:15:58.444Z,47.17
2018-01-07T03:18:27.492Z,42.78
2018-01-07T03:21:01.684Z,45.92
2018-01-07T03:23:34.780Z,45.65
2018-01-07T03:26:07.852Z,50.22
2018-01-07T03:28:43.812Z,43.20
2018-01-07T03:31:16.237Z,45.85
2018-01-07T03:33:48.680Z,48.60
2018-01-07T03:36:16.948Z,47.97
2018-01-07T03:38:46.968Z,45.03
2018-01-07T03:41:16.016Z,46.47
2018-01-07T03:44:01.228Z,47.95
2018-01-07T03:46:31.040Z,44.67
2018-01-07T03:49:01.820Z,48.60
2018-01-07T03:51:37.652Z,50.10
2018-01-07T03:54:05.752Z,48.95
2018-01-07T03:56:33.820Z,47.85
2018-01-07T03:59:01.952Z,46.37
2018-01-07T04:01:32.004Z,48.13
2018-01-07T04:04:03.240Z,42.38
2018-01-07T04:06:37.644Z,42.33
2018-01-07T04:09:11.147Z,43.03
2018-01-07T04:11:43.444Z,40.10
2018-01-07T04:14:11.596Z,44.05
2018-01-07T04:16:39.632Z,44.95
2018-01-07T04:19:08.655Z,44.08
2018-01-07T04:21:46.684Z,48.53
2018-01-07T04:24:14.772Z,46.35
2018-01-07T04:26:48.735Z,42.75
2018-01-07T04:29:17.608Z,40.03
2018-01-07T04:31:48.876Z,42.28
2018-01-07T04:34:16.972Z,43.15
2018-01-07T04:36:46.072Z,43.05
2018-01-07T04:39:14.348Z,42.83
2018-01-07T04:41:44.516Z,46.20
2018-01-07T04:44:14.610Z,47.15
2018-01-07T04:46:43.536Z,42.22
2018-01-07T04:49:12.511Z,45.00
2018-01-07T04:51:41.404Z,45.58
2018-01-07T04:54:11.440Z,44.40
2018-01-07T04:56:41.420Z,48.05
2018-01-07T04:59:11.480Z,46.80
2018-01-07T05:01:50.248Z,46.45
2018-01-07T05:04:21.508Z,44.45
2018-01-07T05:06:49.570Z,45.25
2018-01-07T05:09:23.863Z,49.50
2018-01-07T05:11:52.876Z,48.87
2018-01-07T05:14:27.167Z,49.85
2018-01-07T05:17:07.980Z,51.40
2018-01-07T05:19:48.884Z,51.33
2018-01-07T05:22:18.847Z,50.92
2018-01-07T05:24:50.655Z,51.72
2018-01-07T05:27:20.367Z,45.72
2018-01-07T05:30:06.360Z,47.20
2018-01-07T05:32:36.467Z,45.85
2018-01-07T05:35:18.675Z,49.67
2018-01-07T05:37:46.739Z,47.53
2018-01-07T05:40:19.207Z,48.25
2018-01-07T05:42:52.176Z,49.75
2018-01-07T05:45:22.247Z,46.97
2018-01-07T05:47:50.528Z,51.17
2018-01-07T05:50:20.643Z,46.17
2018-01-07T05:52:49.671Z,49.40
2018-01-07T05:55:18.687Z,43.15
2018-01-07T05:57:50.531Z,44.78
2018-01-07T06:00:20.203Z,44.63
2018-01-07T06:03:02.364Z,41.15
2018-01-07T06:05:38.295Z,41.58
2018-01-07T06:08:07.482Z,45.42
2018-01-07T06:10:38.331Z,40.03
2018-01-07T06:13:09.369Z,40.25
2018-01-07T06:15:49.079Z,40.50
2018-01-07T06:18:29.564Z,43.60
2018-01-07T06:21:13.043Z,42.17
2018-01-07T06:23:42.115Z,42.78
2018-01-07T06:26:12.511Z,41.67
2018-01-07T06:28:41.451Z,41.95
2018-01-07T06:31:11.415Z,42.22
2018-01-07T06:33:54.495Z,42.90
2018-01-07T06:36:28.511Z,43.83
2018-01-07T06:38:58.516Z,38.38
2018-01-07T06:41:28.552Z,39.30
2018-01-07T06:44:03.231Z,38.60
2018-01-07T06:46:43.859Z,40.25
2018-01-07T06:49:12.691Z,38.83
2018-01-07T06:51:41.415Z,41.28
2018-01-07T06:54:13.027Z,37.58
2018-01-07T06:56:45.055Z,38.80
2018-01-07T06:59:14.051Z,38.70
2018-01-07T07:01:54.414Z,41.25
2018-01-07T07:04:22.518Z,38.25
2018-01-07T07:06:51.575Z,40.42
2018-01-07T07:09:22.323Z,41.50
2018-01-07T07:11:50.363Z,38.60
2018-01-07T07:14:19.342Z,37.92
2018-01-07T07:16:51.847Z,39.70
2018-01-07T07:19:25.247Z,37.47
2018-01-07T07:21:53.311Z,38.30
2018-01-07T07:24:24.031Z,41.40
2018-01-07T07:26:54.067Z,42.10
2018-01-07T07:29:29.265Z,41.30
2018-01-07T07:32:01.266Z,38.85
2018-01-07T07:34:30.091Z,41.47
2018-01-07T07:37:06.671Z,42.22
2018-01-07T07:39:38.057Z,39.78
2018-01-07T07:42:11.999Z,36.67
2018-01-07T07:44:43.626Z,37.60
2018-01-07T07:47:15.379Z,39.28
2018-01-07T07:49:43.410Z,37.70
2018-01-07T07:52:15.734Z,40.12
2018-01-07T07:55:00.215Z,38.50
2018-01-07T07:57:42.910Z,37.88
2018-01-07T08:00:10.942Z,40.88
2018-01-07T08:02:44.975Z,39.15
2018-01-07T08:05:19.799Z,41.00
2018-01-07T08:07:58.791Z,40.50
2018-01-07T08:10:47.835Z,36.83
2018-01-07T08:13:28.278Z,38.63
2018-01-07T08:16:09.975Z,37.95
2018-01-07T08:18:38.462Z,40.20
2018-01-07T08:21:10.671Z,38.65
2018-01-07T08:23:38.707Z,38.90
2018-01-07T08:26:21.642Z,38.55
2018-01-07T08:28:54.163Z,39.17
2018-01-07T08:31:41.515Z,37.67
2018-01-07T08:34:11.486Z,41.33
2018-01-07T08:36:40.275Z,38.70
2018-01-07T08:39:09.075Z,38.78
2018-01-07T08:41:38.843Z,38.70
2018-01-07T08:44:06.963Z,35.92
2018-01-07T08:46:36.742Z,37.45
2018-01-07T08:49:10.714Z,37.63
2018-01-07T08:51:41.290Z,41.25
2018-01-07T08:54:10.258Z,38.40
2018-01-07T08:56:39.299Z,38.65
2018-01-07T08:59:09.298Z,39.08
2018-01-07T09:01:39.167Z,38.97
2018-01-07T09:04:17.021Z,38.47
2018-01-07T09:07:09.931Z,39.22
2018-01-07T09:09:37.951Z,39.85
2018-01-07T09:12:06.043Z,40.72
2018-01-07T09:14:34.978Z,35.03
2018-01-07T09:17:03.074Z,39.03
2018-01-07T09:19:32.035Z,38.58
2018-01-07T09:22:05.874Z,36.72
2018-01-07T09:24:43.231Z,38.30
2018-01-07T09:27:13.370Z,36.85
2018-01-07T09:29:58.371Z,38.95
2018-01-07T09:32:34.608Z,37.13
2018-01-07T09:35:03.439Z,40.15
2018-01-07T09:37:33.386Z,40.08
2018-01-07T09:40:03.425Z,39.30
2018-01-07T09:42:50.998Z,39.65
2018-01-07T09:45:25.574Z,37.95
2018-01-07T09:48:00.663Z,39.80
2018-01-07T09:50:32.790Z,41.53
2018-01-07T09:53:11.382Z,41.85
2018-01-07T09:55:47.038Z,42.33
2018-01-07T09:58:15.854Z,40.38
2018-01-07T10:00:45.811Z,38.92
2018-01-07T10:03:17.710Z,37.83
2018-01-07T10:05:56.794Z,38.22
2018-01-07T10:08:39.101Z,37.08
2018-01-07T10:11:07.186Z,38.80
2018-01-07T10:13:35.222Z,36.75
2018-01-07T10:16:10.250Z,40.65
2018-01-07T10:18:42.310Z,40.22
2018-01-07T10:21:25.295Z,41.15
2018-01-07T10:23:56.014Z,37.28
2018-01-07T10:26:27.190Z,41.28
2018-01-07T10:28:56.162Z,40.03
2018-01-07T10:31:34.599Z,40.67
2018-01-07T10:34:03.566Z,37.85
2018-01-07T10:36:32.355Z,41.47
2018-01-07T10:39:01.162Z,39.75
2018-01-07T10:41:50.142Z,39.58
2018-01-07T10:44:19.110Z,37.47
2018-01-07T10:46:48.086Z,36.63
2018-01-07T10:49:17.035Z,38.92
2018-01-07T10:51:45.070Z,36.22
2018-01-07T10:54:15.789Z,35.47
2018-01-07T10:56:50.277Z,36.97
2018-01-07T10:59:19.242Z,33.20
2018-01-07T11:01:54.958Z,34.45
2018-01-07T11:04:27.491Z,31.70
2018-01-07T11:07:03.142Z,32.47
2018-01-07T11:09:36.942Z,33.45
2018-01-07T11:12:05.148Z,32.00
2018-01-07T11:14:52.174Z,30.10
2018-01-07T11:17:34.578Z,27.77
2018-01-07T11:20:03.603Z,26.30
2018-01-07T11:22:35.674Z,25.12
2018-01-07T11:25:05.718Z,24.40
2018-01-07T11:27:34.798Z,20.95
2018-01-07T11:30:05.654Z,20.92
2018-01-07T11:32:34.762Z,20.02
2018-01-07T11:35:03.850Z,20.92
2018-01-07T11:37:33.722Z,19.92
2018-01-07T11:40:24.846Z,22.02
2018-01-07T11:43:04.450Z,21.85
2018-01-07T11:45:46.090Z,21.62
2018-01-07T11:48:15.070Z,19.83
2018-01-07T11:50:43.130Z,20.10
2018-01-07T11:53:13.373Z,19.35
2018-01-07T11:55:45.011Z,18.00
2018-01-07T11:58:20.566Z,20.08
2018-01-07T12:00:50.177Z,17.48
2018-01-07T12:03:19.385Z,16.70
2018-01-07T12:05:55.877Z,15.98
2018-01-07T12:08:24.926Z,15.18
2018-01-07T12:10:55.046Z,12.07
2018-01-07T12:13:25.614Z,10.65
2018-01-07T12:16:00.317Z,8.82
2018-01-07T12:18:32.887Z,9.35
2018-01-07T12:21:07.666Z,8.40
2018-01-07T12:23:37.892Z,8.77
2018-01-07T12:26:07.234Z,7.72
2018-01-07T12:28:35.409Z,7.50
2018-01-07T12:31:03.606Z,7.55
2018-01-07T12:33:32.645Z,7.75
2018-01-07T12:36:00.882Z,7.60
2018-01-07T12:38:35.690Z,8.23
2018-01-07T12:44:06.814Z,8.00
2018-01-07T12:46:36.050Z,7.00
2018-01-07T12:49:19.657Z,7.93
2018-01-07T12:51:56.154Z,6.65
2018-01-07T12:54:28.105Z,6.65
2018-01-07T12:56:57.026Z,6.50
2018-01-07T12:59:27.629Z,6.60
2018-01-07T13:01:58.249Z,6.18
2018-01-07T13:04:26.746Z,6.72
2018-01-07T13:06:59.638Z,7.43
2018-01-07T13:12:32.225Z,6.82
2018-01-07T13:15:05.925Z,6.40
2018-01-07T13:17:35.349Z,6.60
2018-01-07T13:20:08.329Z,6.07
2018-01-07T13:22:40.081Z,6.15
2018-01-07T13:25:11.637Z,5.62
2018-01-07T13:27:41.278Z,6.72
2018-01-07T13:30:11.285Z,6.75
2018-01-07T13:32:48.009Z,6.47
2018-01-07T13:38:09.246Z,5.72
2018-01-07T13:40:38.253Z,7.43
2018-01-07T13:43:07.889Z,5.80
2018-01-07T13:45:40.169Z,6.35
2018-01-07T13:48:09.229Z,6.57
2018-01-07T13:50:42.657Z,6.43
2018-01-07T13:53:13.565Z,7.15
2018-01-07T13:55:42.889Z,6.32
2018-01-07T13:58:10.889Z,7.70
2018-01-07T14:00:44.833Z,5.87
2018-01-07T14:03:14.912Z,5.75
2018-01-07T14:05:47.082Z,7.35
2018-01-07T14:08:15.737Z,6.18
2018-01-07T14:10:43.725Z,6.10
2018-01-07T14:13:12.765Z,6.03
2018-01-07T14:15:40.805Z,5.90
2018-01-07T14:18:14.805Z,6.78
2018-01-07T14:20:43.087Z,6.78
2018-01-07T14:23:11.136Z,7.82
2018-01-07T14:25:40.073Z,7.18
2018-01-07T14:28:09.173Z,7.37
2018-01-07T14:30:43.261Z,8.45
2018-01-07T14:33:11.287Z,6.95
2018-01-07T14:35:43.969Z,7.55
2018-01-07T14:38:18.136Z,7.60
2018-01-07T14:40:47.144Z,8.07
2018-01-07T14:43:25.708Z,6.32
2018-01-07T14:45:58.729Z,7.15
2018-01-07T14:48:26.796Z,8.30
2018-01-07T14:51:08.292Z,7.65
2018-01-07T14:53:41.589Z,7.85
2018-01-07T14:56:09.648Z,7.80
2018-01-07T14:58:37.668Z,8.10
2018-01-07T15:01:07.656Z,7.62
2018-01-07T15:03:35.660Z,7.72
2018-01-07T15:06:08.021Z,8.40
2018-01-07T15:08:37.681Z,7.82
2018-01-07T15:11:06.603Z,7.57
2018-01-07T15:13:35.620Z,8.10
2018-01-07T15:16:08.800Z,7.22
2018-01-07T15:18:37.852Z,8.65
2018-01-07T15:21:11.004Z,7.72
2018-01-07T15:23:39.968Z,7.87
2018-01-07T15:26:08.969Z,8.13
2018-01-07T15:28:37.930Z,7.80
2018-01-07T15:31:17.732Z,7.62
2018-01-07T15:33:47.692Z,8.30
2018-01-07T15:36:15.724Z,8.45
2018-01-07T15:38:47.173Z,7.80
2018-01-07T15:41:17.123Z,9.05
2018-01-07T15:43:57.062Z,11.45
2018-01-07T15:46:45.353Z,10.77
2018-01-07T15:49:28.276Z,9.20
2018-01-07T15:51:59.500Z,8.93
2018-01-07T15:54:29.304Z,9.40
2018-01-07T15:56:57.476Z,9.05
2018-01-07T15:59:31.736Z,8.25
2018-01-07T16:02:03.472Z,9.10
2018-01-07T16:04:38.340Z,9.05
2018-01-07T16:07:08.316Z,12.40
2018-01-07T16:09:48.784Z,11.77
2018-01-07T16:15:15.875Z,9.10
2018-01-07T16:17:54.376Z,8.57
2018-01-07T16:20:27.864Z,9.98
2018-01-07T16:23:01.512Z,9.10
2018-01-07T16:25:43.916Z,9.85
2018-01-07T16:28:23.567Z,10.70
2018-01-07T16:31:03.352Z,11.88
2018-01-07T16:33:31.448Z,11.90
2018-01-07T16:36:03.096Z,10.10
2018-01-07T16:38:36.832Z,10.07
2018-01-07T16:41:08.500Z,10.20
2018-01-07T16:43:37.492Z,11.80
2018-01-07T16:46:09.944Z,11.12
2018-01-07T16:48:37.988Z,11.40
2018-01-07T16:51:18.616Z,11.50
2018-01-07T16:53:47.584Z,11.60
2018-01-07T16:56:28.090Z,11.20
2018-01-07T16:58:58.084Z,12.13
2018-01-07T17:01:30.352Z,12.30
2018-01-07T17:04:00.084Z,11.88
2018-01-07T17:06:28.131Z,12.85
2018-01-07T17:08:57.984Z,11.35
2018-01-07T17:11:33.760Z,11.95
2018-01-07T17:14:12.213Z,13.15
2018-01-07T17:16:53.240Z,13.32
2018-01-07T17:19:31.892Z,13.02
2018-01-07T17:22:13.260Z,13.30
2018-01-07T17:25:02.304Z,13.65
2018-01-07T17:30:31.148Z,14.13
2018-01-07T17:32:59.248Z,14.65
2018-01-07T17:35:34.360Z,13.80
2018-01-07T17:38:09.759Z,13.18
2018-01-07T17:40:37.883Z,14.40
2018-01-07T17:43:16.284Z,13.40
2018-01-07T17:45:49.528Z,14.20
2018-01-07T17:48:23.723Z,15.13
2018-01-07T17:51:00.132Z,17.67
2018-01-07T17:53:40.864Z,15.68
2018-01-07T17:56:09.028Z,15.55
2018-01-07T17:58:37.305Z,15.68
2018-01-07T18:01:07.536Z,15.85
2018-01-07T18:03:37.671Z,16.02
2018-01-07T18:06:08.143Z,15.23
2018-01-07T18:08:47.304Z,15.02
2018-01-07T18:11:20.452Z,14.80
2018-01-07T18:13:57.335Z,16.00
2018-01-07T18:19:40.544Z,15.75
2018-01-07T18:22:09.883Z,15.77
2018-01-07T18:24:38.023Z,18.05
2018-01-07T18:27:14.399Z,17.90
2018-01-07T18:32:45.711Z,18.98
2018-01-07T18:35:33.758Z,18.20
2018-01-07T18:38:17.179Z,17.75
2018-01-07T18:40:49.771Z,18.80
2018-01-07T18:43:19.175Z,18.58
2018-01-07T18:46:07.211Z,20.45
2018-01-07T18:48:35.323Z,19.20
2018-01-07T18:51:04.723Z,20.50
2018-01-07T18:53:48.963Z,20.90
2018-01-07T18:56:26.459Z,20.33
2018-01-07T18:59:08.031Z,20.58
2018-01-07T19:01:36.127Z,20.98
2018-01-07T19:04:04.699Z,20.12
2018-01-07T19:06:34.483Z,19.83
2018-01-07T19:11:51.135Z,20.45
2018-01-07T19:14:20.947Z,21.30
2018-01-07T19:16:52.555Z,21.17
2018-01-07T19:19:23.296Z,20.65
2018-01-07T19:24:26.735Z,22.13
2018-01-07T19:29:29.683Z,22.00
2018-01-07T19:31:59.079Z,24.33
2018-01-07T19:34:36.323Z,22.37
2018-01-07T19:39:46.979Z,21.98
2018-01-07T19:42:15.099Z,24.70
2018-01-07T19:44:56.283Z,24.50
2018-01-07T19:50:07.715Z,22.50
2018-01-07T19:52:37.819Z,24.80
2018-01-07T19:55:11.511Z,25.67
2018-01-07T19:57:39.655Z,24.05
2018-01-07T20:00:08.843Z,22.85
2018-01-07T20:02:38.887Z,23.15
2018-01-07T20:05:11.895Z,24.23
2018-01-07T20:07:41.151Z,22.75
2018-01-07T20:10:10.399Z,23.67
2018-01-07T20:12:43.335Z,23.35
2018-01-07T20:15:17.683Z,23.92
2018-01-07T20:17:57.350Z,22.87
2018-01-07T20:20:26.339Z,23.35
2018-01-07T20:22:57.147Z,22.15
2018-01-07T20:25:27.351Z,22.65
2018-01-07T20:27:56.315Z,23.30
2018-01-07T20:30:28.539Z,23.17
2018-01-07T20:32:57.039Z,21.80
2018-01-07T20:35:26.287Z,24.45
2018-01-07T20:37:55.611Z,23.92
2018-01-07T20:40:27.962Z,23.98
2018-01-07T20:42:56.089Z,22.90
2018-01-07T20:45:25.075Z,21.83
2018-01-07T20:47:54.278Z,23.02
2018-01-07T20:50:26.027Z,24.92
2018-01-07T20:52:55.095Z,24.45
2018-01-07T20:55:28.954Z,24.60
2018-01-07T20:58:01.159Z,23.02
2018-01-07T21:00:29.607Z,22.52
2018-01-07T21:02:59.310Z,23.80
2018-01-07T21:05:31.694Z,23.60
2018-01-07T21:08:02.523Z,23.35
2018-01-07T21:10:33.986Z,24.77
2018-01-07T21:16:07.910Z,25.62
2018-01-07T21:18:37.675Z,23.70
2018-01-07T21:21:18.094Z,23.30
2018-01-07T21:23:47.222Z,21.65
2018-01-07T21:26:15.239Z,22.92
2018-01-07T21:28:44.170Z,22.70
2018-01-07T21:31:16.774Z,22.23
2018-01-07T21:33:46.754Z,22.25
2018-01-07T21:36:14.798Z,24.00
2018-01-07T21:38:57.060Z,23.92
2018-01-07T21:41:43.036Z,24.00
2018-01-07T21:44:13.274Z,22.45
2018-01-07T21:46:45.246Z,23.52
2018-01-07T21:49:19.731Z,24.80
2018-01-07T21:54:30.746Z,24.08
2018-01-07T21:57:01.886Z,22.98
2018-01-07T22:03:05.584Z,25.00
2018-01-07T22:05:34.754Z,21.67
2018-01-07T22:08:04.710Z,22.70
2018-01-07T22:10:33.732Z,22.08
2018-01-07T22:16:12.682Z,21.60
2018-01-07T22:18:42.830Z,22.17
2018-01-07T22:21:24.934Z,21.90
2018-01-07T22:23:53.982Z,22.13
2018-01-07T22:26:25.562Z,21.10
2018-01-07T22:28:56.255Z,19.37
2018-01-07T22:41:53.950Z,21.95
2018-01-07T22:47:02.558Z,20.85
2018-01-07T22:49:34.942Z,21.20
2018-01-07T22:52:14.126Z,22.77
2018-01-07T22:54:53.934Z,20.65
2018-01-07T22:59:57.542Z,20.52
2018-01-07T23:02:26.722Z,22.90
2018-01-07T23:05:02.020Z,21.27
2018-01-07T23:10:24.022Z,20.45
2018-01-07T23:22:03.650Z,23.60
2018-01-07T23:24:40.493Z,23.48
2018-01-07T23:27:16.366Z,22.08
2018-01-07T23:29:48.853Z,24.48
2018-01-07T23:32:20.170Z,25.15
2018-01-07T23:34:51.950Z,22.30
2018-01-07T23:47:42.322Z,23.08
